createdAt,value
2022-10-16T00:01:41.330Z,50.75
2022-10-16T00:04:09.760Z,50.53
2022-10-16T00:06:37.286Z,50.42
2022-10-16T00:09:04.951Z,50.96
2022-10-16T00:11:39.927Z,50.85
2022-10-16T00:14:12.289Z,50.82
2022-10-16T00:16:40.276Z,50.81
2022-10-16T00:19:07.879Z,50.60
2022-10-16T00:21:35.309Z,50.82
2022-10-16T00:24:21.052Z,50.88
2022-10-16T00:26:50.376Z,51.17
2022-10-16T00:29:17.901Z,51.13
2022-10-16T00:31:45.380Z,51.39
2022-10-16T00:34:12.749Z,50.72
2022-10-16T00:36:40.312Z,50.96
2022-10-16T00:39:08.216Z,51.60
2022-10-16T00:41:35.741Z,51.69
2022-10-16T00:44:24.723Z,51.89
2022-10-16T00:46:52.154Z,52.10
2022-10-16T00:49:21.276Z,52.33
2022-10-16T00:51:51.217Z,52.54
2022-10-16T00:54:25.949Z,52.14
2022-10-16T00:56:55.205Z,52.26
2022-10-16T00:59:40.388Z,52.61
2022-10-16T01:02:10.676Z,52.71
2022-10-16T01:04:40.031Z,52.71
2022-10-16T01:07:32.436Z,52.45
2022-10-16T01:10:16.448Z,52.21
2022-10-16T01:12:56.236Z,52.17
2022-10-16T01:15:30.722Z,52.13
2022-10-16T01:17:59.758Z,52.28
2022-10-16T01:20:33.232Z,52.47
2022-10-16T01:23:21.723Z,52.50
2022-10-16T01:26:28.780Z,52.56
2022-10-16T01:28:59.796Z,52.62
2022-10-16T01:31:30.603Z,53.09
2022-10-16T01:34:04.229Z,52.83
2022-10-16T01:36:39.285Z,52.87
2022-10-16T01:39:07.994Z,53.09
2022-10-16T01:41:43.006Z,53.33
2022-10-16T01:44:27.070Z,53.33
2022-10-16T01:46:55.171Z,52.91
2022-10-16T01:49:24.593Z,53.13
2022-10-16T01:51:56.527Z,53.29
2022-10-16T01:54:29.784Z,53.19
2022-10-16T01:56:57.707Z,53.67
2022-10-16T01:59:27.369Z,53.93
2022-10-16T02:01:58.432Z,53.56
2022-10-16T02:04:34.314Z,53.66
2022-10-16T02:07:01.918Z,54.00
2022-10-16T02:09:30.968Z,53.87
2022-10-16T02:12:00.649Z,53.92
2022-10-16T02:14:28.016Z,53.81
2022-10-16T02:16:55.713Z,53.71
2022-10-16T02:19:23.260Z,53.84
2022-10-16T02:21:52.912Z,54.10
2022-10-16T02:24:51.670Z,53.54
2022-10-16T02:27:24.716Z,53.52
2022-10-16T02:29:59.732Z,53.75
2022-10-16T02:32:31.706Z,53.66
2022-10-16T02:35:00.441Z,53.72
2022-10-16T02:37:28.295Z,53.89
2022-10-16T02:39:57.815Z,54.12
2022-10-16T02:42:31.024Z,54.31
2022-10-16T02:44:58.568Z,54.25
2022-10-16T02:47:26.160Z,54.31
2022-10-16T02:49:53.532Z,54.49
2022-10-16T02:52:20.802Z,54.39
2022-10-16T02:54:48.382Z,54.54
2022-10-16T02:57:15.775Z,54.63
2022-10-16T02:59:43.072Z,54.69
2022-10-16T03:02:10.649Z,54.63
2022-10-16T03:04:38.139Z,54.91
2022-10-16T03:07:05.615Z,54.93
2022-10-16T03:09:33.260Z,55.06
2022-10-16T03:12:00.555Z,55.07
2022-10-16T03:17:00.404Z,55.42
2022-10-16T03:19:27.695Z,55.17
2022-10-16T03:21:54.992Z,55.03
2022-10-16T03:24:22.536Z,55.46
2022-10-16T03:26:49.807Z,55.63
2022-10-16T03:29:17.124Z,55.48
2022-10-16T03:31:44.724Z,55.36
2022-10-16T03:34:12.183Z,55.51
2022-10-16T03:36:39.478Z,55.31
2022-10-16T03:39:07.244Z,55.58
2022-10-16T03:41:34.525Z,55.44
2022-10-16T03:44:01.824Z,55.48
2022-10-16T03:46:29.647Z,55.30
2022-10-16T03:48:56.950Z,55.64
2022-10-16T03:51:24.315Z,55.67
2022-10-16T03:53:51.985Z,55.61
2022-10-16T03:56:19.268Z,55.95
2022-10-16T03:58:46.565Z,56.10
2022-10-16T04:01:14.198Z,56.32
2022-10-16T04:03:42.040Z,56.26
2022-10-16T04:06:09.843Z,56.19
2022-10-16T04:08:37.632Z,56.34
2022-10-16T04:11:05.717Z,56.27
2022-10-16T04:13:33.015Z,56.36
2022-10-16T04:16:00.324Z,56.58
2022-10-16T04:18:28.237Z,56.79
2022-10-16T04:20:55.556Z,56.91
2022-10-16T04:23:23.951Z,56.89
2022-10-16T04:25:51.878Z,56.66
2022-10-16T04:28:19.218Z,57.02
2022-10-16T04:30:46.564Z,57.02
2022-10-16T04:33:14.128Z,56.93
2022-10-16T04:35:41.478Z,56.94
2022-10-16T04:38:09.306Z,57.39
2022-10-16T04:40:39.731Z,57.26
2022-10-16T04:43:08.303Z,57.26
2022-10-16T04:45:35.590Z,57.33
2022-10-16T04:48:03.184Z,57.49
2022-10-16T04:50:30.475Z,57.40
2022-10-16T04:53:01.510Z,57.27
2022-10-16T04:55:29.070Z,57.20
2022-10-16T04:57:56.355Z,57.23
2022-10-16T05:00:23.681Z,57.67
2022-10-16T05:02:52.038Z,57.18
2022-10-16T05:05:20.458Z,57.50
2022-10-16T05:07:48.475Z,57.34
2022-10-16T05:10:16.351Z,57.31
2022-10-16T05:12:44.361Z,57.67
2022-10-16T05:15:11.692Z,57.38
2022-10-16T05:17:42.560Z,57.67
2022-10-16T05:20:13.046Z,57.78
2022-10-16T05:22:40.622Z,57.44
2022-10-16T05:25:07.984Z,57.50
2022-10-16T05:27:35.276Z,57.86
2022-10-16T05:30:03.017Z,57.60
2022-10-16T05:32:30.372Z,57.34
2022-10-16T05:34:57.727Z,57.88
2022-10-16T05:37:25.559Z,57.48
2022-10-16T05:39:53.048Z,57.44
2022-10-16T05:42:20.331Z,57.17
2022-10-16T05:44:47.888Z,57.05
2022-10-16T05:47:15.435Z,56.82
2022-10-16T05:49:42.747Z,56.38
2022-10-16T05:52:10.297Z,56.10
2022-10-16T05:54:37.597Z,56.11
2022-10-16T05:57:06.624Z,55.60
2022-10-16T05:59:34.187Z,54.93
2022-10-16T06:02:01.486Z,54.37
2022-10-16T06:04:29.044Z,53.84
2022-10-16T06:07:01.205Z,53.19
2022-10-16T06:09:28.787Z,52.38
2022-10-16T06:11:56.410Z,52.42
2022-10-16T06:14:23.726Z,52.09
2022-10-16T06:16:51.286Z,51.82
2022-10-16T06:19:19.420Z,51.08
2022-10-16T06:21:47.041Z,50.24
2022-10-16T06:24:14.655Z,50.34
2022-10-16T06:26:41.943Z,50.12
2022-10-16T06:29:09.484Z,49.42
2022-10-16T06:31:37.115Z,49.05
2022-10-16T06:34:06.611Z,48.78
2022-10-16T06:36:33.891Z,48.41
2022-10-16T06:39:01.554Z,48.42
2022-10-16T06:41:28.860Z,48.34
2022-10-16T06:43:57.019Z,48.39
2022-10-16T06:46:25.838Z,47.94
2022-10-16T06:48:55.952Z,48.13
2022-10-16T06:51:24.949Z,47.73
2022-10-16T06:54:03.456Z,47.70
2022-10-16T06:56:32.851Z,47.94
2022-10-16T06:59:00.955Z,48.33
2022-10-16T07:01:28.540Z,47.78
2022-10-16T07:03:55.882Z,47.89
2022-10-16T07:06:25.068Z,48.03
2022-10-16T07:08:52.383Z,47.81
2022-10-16T07:11:21.980Z,46.99
2022-10-16T07:13:54.429Z,46.02
2022-10-16T07:16:28.522Z,46.71
2022-10-16T07:19:00.650Z,46.30
2022-10-16T07:21:30.819Z,45.71
2022-10-16T07:24:00.443Z,45.22
2022-10-16T07:26:28.919Z,45.13
2022-10-16T07:28:57.707Z,45.24
2022-10-16T07:31:25.955Z,45.00
2022-10-16T07:33:53.579Z,44.63
2022-10-16T07:36:21.669Z,44.69
2022-10-16T07:38:51.033Z,44.42
2022-10-16T07:41:20.892Z,44.08
2022-10-16T07:43:49.647Z,43.88
2022-10-16T07:46:18.029Z,43.95
2022-10-16T07:48:47.971Z,43.81
2022-10-16T07:51:17.917Z,43.63
2022-10-16T07:53:45.782Z,43.67
2022-10-16T07:56:13.507Z,43.91
2022-10-16T07:58:40.939Z,43.68
2022-10-16T08:01:10.744Z,43.48
2022-10-16T08:03:38.710Z,43.92
2022-10-16T08:06:06.254Z,43.70
2022-10-16T08:08:33.680Z,43.30
2022-10-16T08:11:01.225Z,43.42
2022-10-16T08:13:28.501Z,43.36
2022-10-16T08:15:56.283Z,43.28
2022-10-16T08:18:24.002Z,43.41
2022-10-16T08:20:58.962Z,43.16
2022-10-16T08:23:27.461Z,43.55
2022-10-16T08:25:55.647Z,43.37
2022-10-16T08:28:23.659Z,43.47
2022-10-16T08:30:51.286Z,42.95
2022-10-16T08:33:18.676Z,43.40
2022-10-16T08:35:54.440Z,43.47
2022-10-16T08:38:22.397Z,43.86
2022-10-16T08:40:52.767Z,47.12
2022-10-16T08:43:21.984Z,44.58
2022-10-16T08:45:58.693Z,46.37
2022-10-16T08:48:30.425Z,45.26
2022-10-16T08:50:58.084Z,44.62
2022-10-16T08:53:32.531Z,43.94
2022-10-16T08:56:00.237Z,43.15
2022-10-16T08:58:29.667Z,42.84
2022-10-16T09:01:00.147Z,42.14
2022-10-16T09:04:05.422Z,42.44
2022-10-16T09:06:57.215Z,42.97
2022-10-16T09:09:42.415Z,42.81
2022-10-16T09:12:15.400Z,41.17
2022-10-16T09:14:58.024Z,41.77
2022-10-16T09:17:39.436Z,42.39
2022-10-16T09:20:12.845Z,42.83
2022-10-16T09:22:40.374Z,42.14
2022-10-16T09:25:19.148Z,41.62
2022-10-16T09:27:49.236Z,42.15
2022-10-16T09:30:21.350Z,42.72
2022-10-16T09:32:51.281Z,42.17
2022-10-16T09:35:21.722Z,41.93
2022-10-16T09:37:51.127Z,42.29
2022-10-16T09:40:36.633Z,42.50
2022-10-16T09:43:19.151Z,42.40
2022-10-16T09:45:59.904Z,42.48
2022-10-16T09:48:45.140Z,44.80
2022-10-16T09:51:26.889Z,44.99
2022-10-16T09:54:02.325Z,44.17
2022-10-16T09:56:33.546Z,43.14
2022-10-16T09:59:04.086Z,42.76
2022-10-16T10:01:38.576Z,42.98
2022-10-16T10:04:06.681Z,41.35
2022-10-16T10:06:48.467Z,41.44
2022-10-16T10:09:25.829Z,41.61
2022-10-16T10:12:00.423Z,41.33
2022-10-16T10:14:38.825Z,40.95
2022-10-16T10:17:06.217Z,41.66
2022-10-16T10:19:41.532Z,41.69
2022-10-16T10:22:21.071Z,41.96
2022-10-16T10:25:00.475Z,42.56
2022-10-16T10:27:35.875Z,41.86
2022-10-16T10:30:26.379Z,42.03
2022-10-16T10:33:21.179Z,42.20
2022-10-16T10:36:31.894Z,42.25
2022-10-16T10:39:07.254Z,42.15
2022-10-16T10:42:01.816Z,41.02
2022-10-16T10:44:53.908Z,40.64
2022-10-16T10:47:53.127Z,40.83
2022-10-16T10:50:35.694Z,40.71
2022-10-16T10:53:40.052Z,41.38
2022-10-16T10:56:46.378Z,40.51
2022-10-16T10:59:41.104Z,40.84
2022-10-16T11:02:27.061Z,40.80
2022-10-16T11:05:32.278Z,40.40
2022-10-16T11:08:03.441Z,40.79
2022-10-16T11:10:52.980Z,40.29
2022-10-16T11:13:27.327Z,41.17
2022-10-16T11:15:58.812Z,41.10
2022-10-16T11:18:38.805Z,40.82
2022-10-16T11:21:11.793Z,40.73
2022-10-16T11:24:20.604Z,40.53
2022-10-16T11:26:49.039Z,40.16
2022-10-16T11:29:21.915Z,40.28
2022-10-16T11:31:53.915Z,40.25
2022-10-16T11:34:38.652Z,39.63
2022-10-16T11:37:22.504Z,39.44
2022-10-16T11:39:51.361Z,39.83
2022-10-16T11:42:34.452Z,38.80
2022-10-16T11:45:08.176Z,39.34
2022-10-16T11:50:32.819Z,39.34
2022-10-16T11:53:06.082Z,39.42
2022-10-16T11:55:44.553Z,39.31
2022-10-16T11:58:31.801Z,39.12
2022-10-16T12:01:02.088Z,39.13
2022-10-16T12:03:44.966Z,38.97
2022-10-16T12:06:27.076Z,39.08
2022-10-16T12:08:55.060Z,39.23
2022-10-16T12:11:28.415Z,39.29
2022-10-16T12:14:21.440Z,39.38
2022-10-16T12:16:57.373Z,39.04
2022-10-16T12:19:27.572Z,38.66
2022-10-16T12:22:00.370Z,38.39
2022-10-16T12:24:34.076Z,38.90
2022-10-16T12:27:01.803Z,38.75
2022-10-16T12:29:39.079Z,37.93
2022-10-16T12:35:24.981Z,39.40
2022-10-16T12:37:52.930Z,39.88
2022-10-16T12:40:30.065Z,39.40
2022-10-16T12:42:57.673Z,39.43
2022-10-16T12:45:33.506Z,39.47
2022-10-16T12:48:02.945Z,39.93
2022-10-16T12:50:32.384Z,39.62
2022-10-16T12:53:01.192Z,39.75
2022-10-16T12:55:43.241Z,40.34
2022-10-16T12:58:40.698Z,40.07
2022-10-16T13:01:23.484Z,39.74
2022-10-16T13:04:19.322Z,39.15
2022-10-16T13:06:54.379Z,39.40
2022-10-16T13:09:29.155Z,39.61
2022-10-16T13:12:15.515Z,39.63
2022-10-16T13:15:18.708Z,39.82
2022-10-16T13:17:54.959Z,39.66
2022-10-16T13:20:24.907Z,39.88
2022-10-16T13:22:57.380Z,40.06
2022-10-16T13:25:40.783Z,40.24
2022-10-16T13:28:09.629Z,39.83
2022-10-16T13:30:41.505Z,39.34
2022-10-16T13:33:21.277Z,38.76
2022-10-16T13:35:51.693Z,39.18
2022-10-16T13:38:20.718Z,38.87
2022-10-16T13:40:52.125Z,38.73
2022-10-16T13:43:21.423Z,40.87
2022-10-16T13:46:18.725Z,39.21
2022-10-16T13:49:04.197Z,38.91
2022-10-16T13:51:32.551Z,39.26
2022-10-16T13:54:00.510Z,38.92
2022-10-16T13:56:30.219Z,39.14
2022-10-16T13:59:05.398Z,39.10
2022-10-16T14:01:41.856Z,39.77
2022-10-16T14:04:11.471Z,39.36
2022-10-16T14:06:42.757Z,39.24
2022-10-16T14:09:31.027Z,39.23
2022-10-16T14:12:03.651Z,38.89
2022-10-16T14:14:36.848Z,39.45
2022-10-16T14:17:04.275Z,38.96
2022-10-16T14:19:32.485Z,39.13
2022-10-16T14:22:01.045Z,39.60
2022-10-16T14:24:33.390Z,39.62
2022-10-16T14:27:01.574Z,39.71
2022-10-16T14:29:32.481Z,39.76
2022-10-16T14:32:02.035Z,39.37
2022-10-16T14:34:38.223Z,39.58
2022-10-16T14:37:18.116Z,39.33
2022-10-16T14:39:50.409Z,39.29
2022-10-16T14:42:20.205Z,39.18
2022-10-16T14:44:48.644Z,38.76
2022-10-16T14:47:18.267Z,40.39
2022-10-16T14:49:45.616Z,41.17
2022-10-16T14:52:13.518Z,40.60
2022-10-16T14:54:41.076Z,41.47
2022-10-16T14:57:18.974Z,40.90
2022-10-16T14:59:47.215Z,40.89
2022-10-16T15:02:35.167Z,40.44
2022-10-16T15:05:15.712Z,40.95
2022-10-16T15:07:43.344Z,41.22
2022-10-16T15:10:11.438Z,40.89
2022-10-16T15:12:38.851Z,41.12
2022-10-16T15:15:21.659Z,41.66
2022-10-16T15:18:01.233Z,41.07
2022-10-16T15:20:31.071Z,41.26
2022-10-16T15:22:58.659Z,40.80
2022-10-16T15:25:35.614Z,40.98
2022-10-16T15:28:04.596Z,40.87
2022-10-16T15:30:32.059Z,41.11
2022-10-16T15:32:59.659Z,41.35
2022-10-16T15:35:27.240Z,41.35
2022-10-16T15:37:54.886Z,41.53
2022-10-16T15:40:23.532Z,42.30
2022-10-16T15:42:51.122Z,42.93
2022-10-16T15:45:20.033Z,42.88
2022-10-16T15:47:47.560Z,43.49
2022-10-16T15:50:16.516Z,43.91
2022-10-16T15:52:43.937Z,44.41
2022-10-16T15:55:12.811Z,44.79
2022-10-16T15:57:42.242Z,45.02
2022-10-16T16:00:14.443Z,45.38
2022-10-16T16:02:43.091Z,45.71
2022-10-16T16:05:11.900Z,45.99
2022-10-16T16:07:40.282Z,46.51
2022-10-16T16:10:09.425Z,46.77
2022-10-16T16:12:37.548Z,47.07
2022-10-16T16:15:06.760Z,47.28
2022-10-16T16:17:35.393Z,47.54
2022-10-16T16:20:03.243Z,48.12
2022-10-16T16:22:31.016Z,48.18
2022-10-16T16:24:58.900Z,48.56
2022-10-16T16:27:26.764Z,48.97
2022-10-16T16:29:56.169Z,49.16
2022-10-16T16:32:23.754Z,49.45
2022-10-16T16:34:51.040Z,49.81
2022-10-16T16:37:18.385Z,50.12
2022-10-16T16:39:46.136Z,50.37
2022-10-16T16:42:13.669Z,50.54
2022-10-16T16:44:40.963Z,50.78
2022-10-16T16:47:08.539Z,51.04
2022-10-16T16:49:36.133Z,51.11
2022-10-16T16:52:03.596Z,51.12
2022-10-16T16:54:31.292Z,51.22
2022-10-16T16:56:58.688Z,51.64
2022-10-16T16:59:26.056Z,51.45
2022-10-16T17:01:56.977Z,51.38
2022-10-16T17:04:24.887Z,51.86
2022-10-16T17:06:54.049Z,52.20
2022-10-16T17:09:22.064Z,52.12
2022-10-16T17:11:49.607Z,52.44
2022-10-16T17:14:16.945Z,52.52
2022-10-16T17:16:45.004Z,52.44
2022-10-16T17:19:15.624Z,52.50
2022-10-16T17:21:43.342Z,52.64
2022-10-16T17:24:11.339Z,52.91
2022-10-16T17:26:41.317Z,53.33
2022-10-16T17:29:11.703Z,53.25
2022-10-16T17:31:39.342Z,53.44
2022-10-16T17:34:08.445Z,53.51
2022-10-16T17:36:37.223Z,53.56
2022-10-16T17:39:07.937Z,53.79
2022-10-16T17:41:36.677Z,53.75
2022-10-16T17:44:05.263Z,53.71
2022-10-16T17:46:36.958Z,53.86
2022-10-16T17:49:07.531Z,54.08
2022-10-16T17:51:35.171Z,54.37
2022-10-16T17:54:03.119Z,54.62
2022-10-16T17:56:30.956Z,54.50
2022-10-16T17:59:00.830Z,54.45
2022-10-16T18:01:33.593Z,54.28
2022-10-16T18:04:07.245Z,54.44
2022-10-16T18:06:34.707Z,54.55
2022-10-16T18:09:02.952Z,54.45
2022-10-16T18:11:30.703Z,54.75
2022-10-16T18:13:59.166Z,55.00
2022-10-16T18:16:28.147Z,54.81
2022-10-16T18:18:59.570Z,54.88
2022-10-16T18:21:28.382Z,54.90
2022-10-16T18:23:57.714Z,54.71
2022-10-16T18:26:25.182Z,54.71
2022-10-16T18:28:54.236Z,55.03
2022-10-16T18:31:23.077Z,55.00
2022-10-16T18:33:51.399Z,55.16
2022-10-16T18:36:21.574Z,55.28
2022-10-16T18:38:48.996Z,55.17
2022-10-16T18:41:16.559Z,55.39
2022-10-16T18:43:44.405Z,55.54
2022-10-16T18:46:14.296Z,55.25
2022-10-16T18:48:42.307Z,55.38
2022-10-16T18:51:17.870Z,55.57
2022-10-16T18:53:48.586Z,55.55
2022-10-16T18:56:17.774Z,55.58
2022-10-16T18:58:48.219Z,55.38
2022-10-16T19:01:20.925Z,55.65
2022-10-16T19:03:49.457Z,55.99
2022-10-16T19:06:17.202Z,55.77
2022-10-16T19:08:44.628Z,56.01
2022-10-16T19:11:13.874Z,56.03
2022-10-16T19:13:42.539Z,55.84
2022-10-16T19:16:20.466Z,55.92
2022-10-16T19:18:50.561Z,56.11
2022-10-16T19:21:18.581Z,55.94
2022-10-16T19:23:46.057Z,56.16
2022-10-16T19:26:16.222Z,56.19
2022-10-16T19:28:44.739Z,56.29
2022-10-16T19:31:14.885Z,56.42
2022-10-16T19:33:42.619Z,56.46
2022-10-16T19:36:18.465Z,56.45
2022-10-16T19:38:46.668Z,56.79
2022-10-16T19:41:17.106Z,56.70
2022-10-16T19:43:45.094Z,56.74
2022-10-16T19:46:15.140Z,56.94
2022-10-16T19:48:42.954Z,56.95
2022-10-16T19:51:18.474Z,57.28
2022-10-16T19:53:47.091Z,57.28
2022-10-16T19:56:22.072Z,57.40
2022-10-16T19:58:50.869Z,57.42
2022-10-16T20:01:18.541Z,57.29
2022-10-16T20:03:47.383Z,57.37
2022-10-16T20:06:17.293Z,57.47
2022-10-16T20:08:45.852Z,57.37
2022-10-16T20:11:16.136Z,57.40
2022-10-16T20:13:43.811Z,57.48
2022-10-16T20:16:12.289Z,57.71
2022-10-16T20:18:40.851Z,57.58
2022-10-16T20:21:13.532Z,57.54
2022-10-16T20:23:41.404Z,57.55
2022-10-16T20:26:11.452Z,57.42
2022-10-16T20:28:40.544Z,57.52
2022-10-16T20:31:23.461Z,57.42
2022-10-16T20:33:52.263Z,57.47
2022-10-16T20:36:21.597Z,57.52
2022-10-16T20:38:49.201Z,57.45
2022-10-16T20:41:17.021Z,57.40
2022-10-16T20:43:46.967Z,57.50
2022-10-16T20:46:16.637Z,57.42
2022-10-16T20:48:44.717Z,57.73
2022-10-16T20:51:16.019Z,57.52
2022-10-16T20:53:45.335Z,57.70
2022-10-16T20:56:15.721Z,57.53
2022-10-16T20:58:43.454Z,57.44
2022-10-16T21:01:13.666Z,57.45
2022-10-16T21:03:41.485Z,57.38
2022-10-16T21:06:09.607Z,57.43
2022-10-16T21:08:42.094Z,57.77
2022-10-16T21:11:21.038Z,57.83
2022-10-16T21:13:49.191Z,57.44
2022-10-16T21:16:17.199Z,57.57
2022-10-16T21:18:45.052Z,57.36
2022-10-16T21:21:20.530Z,57.99
2022-10-16T21:23:49.224Z,57.87
2022-10-16T21:26:18.126Z,58.05
2022-10-16T21:28:45.485Z,57.91
2022-10-16T21:31:18.673Z,57.70
2022-10-16T21:33:46.907Z,58.09
2022-10-16T21:36:29.245Z,58.75
2022-10-16T21:39:01.047Z,58.20
2022-10-16T21:41:29.168Z,58.04
2022-10-16T21:43:57.511Z,57.77
2022-10-16T21:46:27.179Z,58.07
2022-10-16T21:48:56.339Z,58.25
2022-10-16T21:51:28.368Z,58.17
2022-10-16T21:53:55.944Z,58.07
2022-10-16T21:56:23.476Z,58.23
2022-10-16T21:58:50.770Z,58.02
2022-10-16T22:01:21.129Z,58.21
2022-10-16T22:03:48.946Z,58.27
2022-10-16T22:06:18.594Z,58.10
2022-10-16T22:08:47.836Z,57.97
2022-10-16T22:11:22.011Z,58.21
2022-10-16T22:13:54.169Z,58.15
2022-10-16T22:16:26.104Z,58.01
2022-10-16T22:18:54.702Z,58.05
2022-10-16T22:21:22.359Z,58.33
2022-10-16T22:23:50.056Z,58.43
2022-10-16T22:26:17.355Z,57.86
2022-10-16T22:28:44.691Z,58.21
2022-10-16T22:31:13.985Z,58.31
2022-10-16T22:33:41.488Z,58.53
2022-10-16T22:36:11.880Z,58.44
2022-10-16T22:38:39.733Z,58.35
2022-10-16T22:41:09.946Z,58.56
2022-10-16T22:43:43.063Z,58.41
2022-10-16T22:46:16.002Z,58.36
2022-10-16T22:48:43.375Z,58.37
2022-10-16T22:51:16.582Z,58.72
2022-10-16T22:53:49.040Z,58.66
2022-10-16T22:56:18.211Z,58.63
2022-10-16T22:58:45.552Z,58.54
2022-10-16T23:01:37.311Z,58.54
2022-10-16T23:04:05.527Z,58.42
2022-10-16T23:06:33.652Z,58.19
2022-10-16T23:09:02.082Z,58.30
2022-10-16T23:11:30.717Z,58.54
2022-10-16T23:13:58.059Z,58.57
2022-10-16T23:16:25.540Z,58.53
2022-10-16T23:18:53.185Z,58.84
2022-10-16T23:21:23.372Z,58.98
2022-10-16T23:23:51.804Z,58.94
2022-10-16T23:26:21.656Z,58.62
2022-10-16T23:28:49.104Z,58.62
2022-10-16T23:31:17.001Z,58.84
2022-10-16T23:33:44.748Z,58.88
2022-10-16T23:36:14.980Z,59.10
2022-10-16T23:38:43.318Z,58.86
2022-10-16T23:41:11.390Z,59.31
2022-10-16T23:43:38.938Z,59.15
2022-10-16T23:46:07.468Z,58.82
2022-10-16T23:48:35.207Z,58.77
2022-10-16T23:51:02.490Z,58.92
2022-10-16T23:53:29.925Z,59.02
2022-10-16T23:55:57.493Z,58.55
2022-10-16T23:58:24.811Z,58.77
